createdAt,value
2017-08-13T00:00:58.565Z,0
2017-08-13T00:02:08.834Z,0
2017-08-13T00:03:19.116Z,0
2017-08-13T00:04:29.385Z,0
2017-08-13T00:05:39.680Z,0
2017-08-13T00:06:49.638Z,0
2017-08-13T00:07:59.918Z,0
2017-08-13T00:09:10.193Z,0
2017-08-13T00:10:20.464Z,0
2017-08-13T00:11:30.732Z,0
2017-08-13T00:12:40.693Z,0
2017-08-13T00:13:50.965Z,0
2017-08-13T00:15:01.232Z,0
2017-08-13T00:16:11.189Z,0
2017-08-13T00:17:21.458Z,0
2017-08-13T00:18:31.734Z,0
2017-08-13T00:19:42.008Z,0
2017-08-13T00:20:52.279Z,0
2017-08-13T00:22:02.548Z,0
2017-08-13T00:23:12.505Z,0
2017-08-13T00:24:22.461Z,0
2017-08-13T00:25:32.422Z,0
2017-08-13T00:26:42.690Z,0
2017-08-13T00:27:52.965Z,0
2017-08-13T00:29:03.242Z,0
2017-08-13T00:30:12.570Z,0
2017-08-13T00:31:22.526Z,0
2017-08-13T00:32:32.813Z,0
2017-08-13T00:33:43.082Z,0
2017-08-13T00:34:53.353Z,0
2017-08-13T00:36:03.624Z,0
2017-08-13T00:37:13.584Z,0
2017-08-13T00:38:23.853Z,0
2017-08-13T00:39:34.125Z,0
2017-08-13T00:40:44.077Z,0
2017-08-13T00:41:54.353Z,0
2017-08-13T00:43:04.623Z,0
2017-08-13T00:44:14.583Z,0
2017-08-13T00:45:24.547Z,0
2017-08-13T00:46:34.682Z,0
2017-08-13T00:47:45.155Z,0
2017-08-13T00:48:55.447Z,0
2017-08-13T00:50:05.406Z,0
2017-08-13T00:51:15.360Z,0
2017-08-13T00:52:24.999Z,0
2017-08-13T00:53:34.959Z,0
2017-08-13T00:54:45.227Z,0
2017-08-13T00:55:55.179Z,0
2017-08-13T00:57:05.448Z,0
2017-08-13T00:58:15.401Z,0
2017-08-13T00:59:25.679Z,0
2017-08-13T01:00:35.947Z,0
2017-08-13T01:01:46.220Z,0
2017-08-13T01:02:56.174Z,0
2017-08-13T01:04:06.132Z,0
2017-08-13T01:05:16.412Z,0
2017-08-13T01:06:26.073Z,0
2017-08-13T01:07:36.035Z,0
2017-08-13T01:08:46.317Z,0
2017-08-13T01:09:56.585Z,0
2017-08-13T01:11:06.538Z,0
2017-08-13T01:12:16.181Z,0
2017-08-13T01:13:26.138Z,0
2017-08-13T01:14:36.413Z,0
2017-08-13T01:15:46.365Z,0
2017-08-13T01:16:56.003Z,0
2017-08-13T01:18:06.271Z,0
2017-08-13T01:19:16.235Z,0
2017-08-13T01:20:26.519Z,0
2017-08-13T01:21:36.788Z,0
2017-08-13T01:22:47.057Z,0
2017-08-13T01:23:57.325Z,0
2017-08-13T01:25:07.596Z,0
2017-08-13T01:26:17.865Z,0
2017-08-13T01:27:28.134Z,0
2017-08-13T01:28:38.407Z,0
2017-08-13T01:29:48.673Z,0
2017-08-13T01:30:58.946Z,0
2017-08-13T01:32:09.226Z,0
2017-08-13T01:33:19.175Z,0
2017-08-13T01:34:29.130Z,0
2017-08-13T01:35:39.397Z,0
2017-08-13T01:36:49.668Z,0
2017-08-13T01:37:59.623Z,0
2017-08-13T01:39:09.895Z,0
2017-08-13T01:40:20.163Z,0
2017-08-13T01:41:30.115Z,0
2017-08-13T01:42:40.382Z,0
2017-08-13T01:43:50.657Z,0
2017-08-13T01:45:00.927Z,0
2017-08-13T01:46:10.882Z,0
2017-08-13T01:47:21.152Z,0
2017-08-13T01:48:31.419Z,0
2017-08-13T01:49:41.374Z,0
2017-08-13T01:50:51.644Z,0
2017-08-13T01:52:01.597Z,0
2017-08-13T01:53:11.551Z,0
2017-08-13T01:54:21.525Z,0
2017-08-13T01:55:31.801Z,0
2017-08-13T01:56:41.782Z,0
2017-08-13T01:57:52.049Z,0
2017-08-13T01:59:02.003Z,0
2017-08-13T02:00:11.963Z,0
2017-08-13T02:01:21.916Z,0
2017-08-13T02:02:31.870Z,0
2017-08-13T02:03:42.140Z,0
2017-08-13T02:04:52.111Z,0
2017-08-13T02:06:02.540Z,0
2017-08-13T02:07:12.181Z,0
2017-08-13T02:08:22.452Z,0
2017-08-13T02:09:32.729Z,0
2017-08-13T02:10:42.997Z,0
2017-08-13T02:11:56.582Z,0
2017-08-13T02:13:06.869Z,0
2017-08-13T02:14:17.144Z,0
2017-08-13T02:15:27.413Z,0
2017-08-13T02:16:37.367Z,0
2017-08-13T02:17:47.636Z,0
2017-08-13T02:18:57.911Z,0
2017-08-13T02:20:08.191Z,0
2017-08-13T02:21:18.159Z,0
2017-08-13T02:22:28.437Z,0
2017-08-13T02:23:38.704Z,0
2017-08-13T02:24:48.975Z,0
2017-08-13T02:25:59.252Z,0
2017-08-13T02:27:09.523Z,0
2017-08-13T02:28:19.795Z,0
2017-08-13T02:29:30.068Z,0
2017-08-13T02:30:40.343Z,0
2017-08-13T02:31:50.619Z,0
2017-08-13T02:33:00.889Z,0
2017-08-13T02:34:11.165Z,0
2017-08-13T02:35:21.434Z,0
2017-08-13T02:36:31.387Z,0
2017-08-13T02:37:41.661Z,0
2017-08-13T02:38:51.301Z,0
2017-08-13T02:40:01.569Z,0
2017-08-13T02:41:11.538Z,0
2017-08-13T02:42:21.810Z,0
2017-08-13T02:43:32.099Z,0
2017-08-13T02:44:42.054Z,0
2017-08-13T02:45:52.323Z,0
2017-08-13T02:47:02.613Z,0
2017-08-13T02:48:12.573Z,0
2017-08-13T02:49:22.530Z,0
2017-08-13T02:50:32.813Z,0
2017-08-13T02:51:43.087Z,0
2017-08-13T02:52:53.356Z,0
2017-08-13T02:54:03.327Z,0
2017-08-13T02:55:13.597Z,0
2017-08-13T02:56:23.234Z,0
2017-08-13T02:57:32.871Z,0
2017-08-13T02:58:43.143Z,0
2017-08-13T02:59:53.418Z,0
2017-08-13T03:01:03.685Z,0
2017-08-13T03:02:13.957Z,0
2017-08-13T03:03:23.908Z,0
2017-08-13T03:04:33.886Z,0
2017-08-13T03:05:44.160Z,0
2017-08-13T03:06:54.430Z,0
2017-08-13T03:08:04.703Z,0
2017-08-13T03:09:14.975Z,0
2017-08-13T03:10:24.928Z,0
2017-08-13T03:11:34.883Z,0
2017-08-13T03:12:45.151Z,0
2017-08-13T03:13:55.419Z,0
2017-08-13T03:15:05.374Z,0
2017-08-13T03:16:15.012Z,0
2017-08-13T03:17:25.279Z,0
2017-08-13T03:18:35.232Z,0
2017-08-13T03:19:45.502Z,0
2017-08-13T03:20:55.773Z,0
2017-08-13T03:22:05.726Z,5
2017-08-13T03:23:15.994Z,5
2017-08-13T03:24:26.263Z,5
2017-08-13T03:25:35.907Z,5
2017-08-13T03:26:46.197Z,5
2017-08-13T03:27:56.149Z,5
2017-08-13T03:29:06.418Z,10
2017-08-13T03:30:16.696Z,10
2017-08-13T03:31:26.663Z,10
2017-08-13T03:32:36.624Z,10
2017-08-13T03:33:46.578Z,10
2017-08-13T03:34:56.544Z,15
2017-08-13T03:36:06.815Z,15
2017-08-13T03:37:17.088Z,15
2017-08-13T03:38:27.355Z,15
2017-08-13T03:39:37.622Z,15
2017-08-13T03:40:47.889Z,20
2017-08-13T03:41:58.159Z,20
2017-08-13T03:43:08.429Z,20
2017-08-13T03:44:18.700Z,20
2017-08-13T03:45:28.971Z,25
2017-08-13T03:46:39.242Z,25
2017-08-13T03:47:49.525Z,25
2017-08-13T03:48:59.814Z,25
2017-08-13T03:50:10.088Z,25
2017-08-13T03:51:20.069Z,30
2017-08-13T03:52:30.023Z,30
2017-08-13T03:53:40.300Z,30
2017-08-13T03:54:50.583Z,30
2017-08-13T03:56:00.545Z,35
2017-08-13T03:57:10.499Z,35
2017-08-13T03:58:20.767Z,35
2017-08-13T03:59:30.722Z,35
2017-08-13T04:00:40.675Z,40
2017-08-13T04:01:50.942Z,40
2017-08-13T04:03:01.212Z,40
2017-08-13T04:04:11.476Z,40
2017-08-13T04:05:21.430Z,45
2017-08-13T04:06:31.384Z,45
2017-08-13T04:07:41.653Z,45
2017-08-13T04:08:51.607Z,45
2017-08-13T04:10:01.567Z,50
2017-08-13T04:11:11.838Z,50
2017-08-13T04:12:22.105Z,50
2017-08-13T04:13:32.377Z,60
2017-08-13T04:14:42.655Z,60
2017-08-13T04:15:52.931Z,60
2017-08-13T04:17:03.205Z,60
2017-08-13T04:18:13.477Z,60
2017-08-13T04:19:23.438Z,60
2017-08-13T04:20:33.401Z,60
2017-08-13T04:21:43.353Z,60
2017-08-13T04:22:53.624Z,60
2017-08-13T04:24:03.890Z,65
2017-08-13T04:25:14.164Z,65
2017-08-13T04:26:24.436Z,70
2017-08-13T04:27:34.393Z,75
2017-08-13T04:28:44.347Z,70
2017-08-13T04:29:54.637Z,75
2017-08-13T04:31:04.905Z,75
2017-08-13T04:32:15.178Z,80
2017-08-13T04:33:25.447Z,80
2017-08-13T04:34:35.400Z,75
2017-08-13T04:35:45.667Z,80
2017-08-13T04:36:55.936Z,80
2017-08-13T04:38:06.204Z,80
2017-08-13T04:39:16.160Z,80
2017-08-13T04:40:26.429Z,80
2017-08-13T04:41:36.697Z,80
2017-08-13T04:42:46.967Z,85
2017-08-13T04:43:57.236Z,85
2017-08-13T04:45:07.502Z,85
2017-08-13T04:46:17.769Z,90
2017-08-13T04:47:28.036Z,90
2017-08-13T04:48:38.307Z,90
2017-08-13T04:49:48.572Z,95
2017-08-13T04:50:58.844Z,100
2017-08-13T04:52:09.118Z,100
2017-08-13T04:53:19.386Z,110
2017-08-13T04:54:29.655Z,110
2017-08-13T04:55:39.922Z,110
2017-08-13T04:56:50.192Z,110
2017-08-13T04:58:00.459Z,110
2017-08-13T04:59:10.736Z,110
2017-08-13T05:00:21.009Z,110
2017-08-13T05:01:31.284Z,115
2017-08-13T05:02:41.556Z,115
2017-08-13T05:03:51.827Z,115
2017-08-13T05:05:02.094Z,115
2017-08-13T05:06:12.372Z,115
2017-08-13T05:07:22.639Z,115
2017-08-13T05:08:32.595Z,120
2017-08-13T05:09:42.863Z,115
2017-08-13T05:10:53.132Z,125
2017-08-13T05:12:03.401Z,115
2017-08-13T05:13:13.671Z,110
2017-08-13T05:14:23.940Z,105
2017-08-13T05:15:34.208Z,105
2017-08-13T05:16:44.163Z,105
2017-08-13T05:17:54.431Z,105
2017-08-13T05:19:04.386Z,105
2017-08-13T05:20:14.655Z,105
2017-08-13T05:21:24.922Z,105
2017-08-13T05:22:34.562Z,110
2017-08-13T05:23:44.830Z,110
2017-08-13T05:24:55.098Z,130
2017-08-13T05:26:05.366Z,130
2017-08-13T05:27:15.638Z,135
2017-08-13T05:28:25.604Z,130
2017-08-13T05:29:35.576Z,130
2017-08-13T05:30:45.851Z,130
2017-08-13T05:31:56.121Z,135
2017-08-13T05:33:06.390Z,135
2017-08-13T05:34:16.657Z,130
2017-08-13T05:35:26.927Z,120
2017-08-13T05:36:36.880Z,135
2017-08-13T05:37:47.149Z,130
2017-08-13T05:38:57.115Z,135
2017-08-13T05:40:07.466Z,135
2017-08-13T05:41:17.746Z,135
2017-08-13T05:42:27.705Z,140
2017-08-13T05:43:37.981Z,140
2017-08-13T05:44:48.250Z,140
2017-08-13T05:45:57.897Z,140
2017-08-13T05:47:08.166Z,145
2017-08-13T05:48:18.435Z,145
2017-08-13T05:49:28.399Z,145
2017-08-13T05:50:38.691Z,145
2017-08-13T05:51:48.332Z,145
2017-08-13T05:52:58.605Z,145
2017-08-13T05:54:08.879Z,145
2017-08-13T05:55:18.838Z,145
2017-08-13T05:56:28.484Z,150
2017-08-13T05:57:38.753Z,150
2017-08-13T05:58:49.024Z,150
2017-08-13T05:59:59.289Z,150
2017-08-13T06:01:09.268Z,150
2017-08-13T06:02:19.538Z,150
2017-08-13T06:03:29.811Z,150
2017-08-13T06:04:40.085Z,150
2017-08-13T06:05:50.042Z,150
2017-08-13T06:07:00.324Z,155
2017-08-13T06:08:10.594Z,155
2017-08-13T06:09:20.865Z,155
2017-08-13T06:10:31.141Z,155
2017-08-13T06:11:41.110Z,155
2017-08-13T06:12:51.382Z,155
2017-08-13T06:14:01.652Z,155
2017-08-13T06:15:11.606Z,155
2017-08-13T06:16:21.892Z,155
2017-08-13T06:17:31.852Z,155
2017-08-13T06:18:42.121Z,155
2017-08-13T06:19:52.390Z,155
2017-08-13T06:21:02.707Z,155
2017-08-13T06:22:12.977Z,155
2017-08-13T06:23:23.264Z,155
2017-08-13T06:24:32.904Z,155
2017-08-13T06:25:43.178Z,155
2017-08-13T06:26:52.827Z,155
2017-08-13T06:28:03.094Z,155
2017-08-13T06:29:13.364Z,155
2017-08-13T06:30:23.633Z,155
2017-08-13T06:31:33.901Z,155
2017-08-13T06:32:44.170Z,160
2017-08-13T06:33:54.134Z,160
2017-08-13T06:35:04.407Z,160
2017-08-13T06:36:14.686Z,160
2017-08-13T06:37:24.953Z,160
2017-08-13T06:38:34.905Z,160
2017-08-13T06:39:45.246Z,160
2017-08-13T06:40:55.209Z,160
2017-08-13T06:42:05.483Z,160
2017-08-13T06:43:15.753Z,160
2017-08-13T06:44:25.707Z,160
2017-08-13T06:45:35.661Z,160
2017-08-13T06:46:45.932Z,160
2017-08-13T06:47:56.207Z,165
2017-08-13T06:49:06.475Z,165
2017-08-13T06:50:16.113Z,165
2017-08-13T06:51:26.383Z,165
2017-08-13T06:52:36.359Z,165
2017-08-13T06:53:46.633Z,165
2017-08-13T06:54:56.905Z,165
2017-08-13T06:56:06.861Z,165
2017-08-13T06:57:17.138Z,165
2017-08-13T06:58:27.094Z,165
2017-08-13T06:59:37.049Z,165
2017-08-13T07:00:47.318Z,165
2017-08-13T07:01:57.601Z,165
2017-08-13T07:03:07.873Z,165
2017-08-13T07:04:18.144Z,170
2017-08-13T07:05:28.100Z,170
2017-08-13T07:06:38.394Z,170
2017-08-13T07:07:48.678Z,170
2017-08-13T07:08:58.955Z,170
2017-08-13T07:10:09.229Z,170
2017-08-13T07:11:19.512Z,170
2017-08-13T07:12:29.784Z,170
2017-08-13T07:13:39.739Z,170
2017-08-13T07:14:50.076Z,170
2017-08-13T07:16:00.343Z,175
2017-08-13T07:17:10.621Z,175
2017-08-13T07:18:20.574Z,175
2017-08-13T07:19:30.538Z,175
2017-08-13T07:20:40.806Z,175
2017-08-13T07:21:50.760Z,175
2017-08-13T07:23:01.031Z,175
2017-08-13T07:24:11.298Z,175
2017-08-13T07:25:21.567Z,175
2017-08-13T07:26:31.840Z,175
2017-08-13T07:27:41.803Z,175
2017-08-13T07:28:52.121Z,175
2017-08-13T07:30:02.387Z,180
2017-08-13T07:31:12.660Z,180
2017-08-13T07:32:22.619Z,180
2017-08-13T07:33:32.577Z,180
2017-08-13T07:34:42.845Z,180
2017-08-13T07:35:53.120Z,180
2017-08-13T07:37:03.389Z,180
2017-08-13T07:38:13.661Z,180
2017-08-13T07:39:23.928Z,180
2017-08-13T07:40:34.196Z,180
2017-08-13T07:41:44.539Z,180
2017-08-13T07:42:54.817Z,175
2017-08-13T07:44:05.090Z,180
2017-08-13T07:45:15.049Z,180
2017-08-13T07:46:25.318Z,185
2017-08-13T07:47:34.957Z,180
2017-08-13T07:48:44.910Z,180
2017-08-13T07:49:55.180Z,180
2017-08-13T07:51:05.447Z,180
2017-08-13T07:52:15.716Z,180
2017-08-13T07:53:25.988Z,180
2017-08-13T07:54:35.950Z,180
2017-08-13T07:55:46.220Z,180
2017-08-13T07:56:56.491Z,180
2017-08-13T07:58:06.447Z,180
2017-08-13T07:59:16.720Z,180
2017-08-13T08:00:27.006Z,180
2017-08-13T08:01:37.294Z,180
2017-08-13T08:02:47.567Z,180
2017-08-13T08:03:57.844Z,185
2017-08-13T08:05:07.809Z,185
2017-08-13T08:06:18.100Z,190
2017-08-13T08:07:28.373Z,190
2017-08-13T08:08:38.643Z,185
2017-08-13T08:09:48.917Z,185
2017-08-13T08:10:58.873Z,185
2017-08-13T08:12:09.153Z,185
2017-08-13T08:13:19.110Z,185
2017-08-13T08:14:29.065Z,185
2017-08-13T08:15:39.339Z,185
2017-08-13T08:16:49.631Z,185
2017-08-13T08:17:59.585Z,185
2017-08-13T08:19:09.865Z,185
2017-08-13T08:20:20.133Z,185
2017-08-13T08:21:30.404Z,185
2017-08-13T08:22:40.359Z,190
2017-08-13T08:23:50.629Z,185
2017-08-13T08:25:00.900Z,190
2017-08-13T08:26:11.175Z,185
2017-08-13T08:27:21.134Z,190
2017-08-13T08:28:30.150Z,190
2017-08-13T08:29:40.422Z,190
2017-08-13T08:30:50.377Z,190
2017-08-13T08:32:00.647Z,190
2017-08-13T08:33:10.915Z,190
2017-08-13T08:34:20.894Z,190
2017-08-13T08:35:30.547Z,190
2017-08-13T08:36:40.508Z,190
2017-08-13T08:37:50.465Z,190
2017-08-13T08:39:00.420Z,190
2017-08-13T08:40:10.403Z,190
2017-08-13T08:41:20.679Z,190
2017-08-13T08:42:30.950Z,190
2017-08-13T08:43:40.906Z,195
2017-08-13T08:44:50.554Z,195
2017-08-13T08:46:00.826Z,195
2017-08-13T08:47:11.109Z,195
2017-08-13T08:48:21.385Z,195
2017-08-13T08:49:31.339Z,195
2017-08-13T08:50:41.294Z,195
2017-08-13T08:51:51.568Z,195
2017-08-13T08:53:01.841Z,195
2017-08-13T08:54:12.118Z,200
2017-08-13T08:55:22.391Z,200
2017-08-13T08:56:32.661Z,200
2017-08-13T08:57:42.303Z,200
2017-08-13T08:58:52.573Z,200
2017-08-13T09:00:02.844Z,200
2017-08-13T09:01:12.808Z,200
2017-08-13T09:02:23.079Z,200
2017-08-13T09:03:33.358Z,200
2017-08-13T09:04:43.653Z,205
2017-08-13T09:05:53.928Z,205
2017-08-13T09:07:03.887Z,205
2017-08-13T09:08:13.534Z,205
2017-08-13T09:09:23.807Z,205
2017-08-13T09:10:33.766Z,205
2017-08-13T09:11:44.036Z,205
2017-08-13T09:12:54.304Z,205
2017-08-13T09:14:04.284Z,205
2017-08-13T09:15:13.935Z,205
2017-08-13T09:16:24.213Z,210
2017-08-13T09:17:34.486Z,210
2017-08-13T09:18:44.450Z,210
2017-08-13T09:19:54.722Z,210
2017-08-13T09:21:04.681Z,210
2017-08-13T09:22:14.954Z,210
2017-08-13T09:23:24.598Z,210
2017-08-13T09:24:34.561Z,210
2017-08-13T09:25:44.839Z,210
2017-08-13T09:26:55.119Z,210
2017-08-13T09:28:05.393Z,210
2017-08-13T09:29:15.663Z,215
2017-08-13T09:30:25.939Z,215
2017-08-13T09:31:35.898Z,215
2017-08-13T09:32:46.169Z,215
2017-08-13T09:33:56.441Z,215
2017-08-13T09:35:06.712Z,215
2017-08-13T09:36:16.984Z,215
2017-08-13T09:37:27.266Z,215
2017-08-13T09:38:37.538Z,220
2017-08-13T09:39:47.828Z,220
2017-08-13T09:40:58.118Z,220
2017-08-13T09:42:08.079Z,220
2017-08-13T09:43:18.362Z,220
2017-08-13T09:44:28.633Z,220
2017-08-13T09:45:38.903Z,225
2017-08-13T09:46:49.174Z,230
2017-08-13T09:47:59.445Z,225
2017-08-13T09:49:09.717Z,225
2017-08-13T09:50:19.987Z,225
2017-08-13T09:51:30.261Z,225
2017-08-13T09:52:40.530Z,230
2017-08-13T09:53:50.488Z,230
2017-08-13T09:55:00.448Z,235
2017-08-13T09:56:10.722Z,230
2017-08-13T09:57:20.998Z,230
2017-08-13T09:58:30.957Z,240
2017-08-13T09:59:41.234Z,230
2017-08-13T10:00:51.202Z,235
2017-08-13T10:02:01.477Z,235
2017-08-13T10:03:11.749Z,235
2017-08-13T10:04:21.390Z,235
2017-08-13T10:05:31.661Z,240
2017-08-13T10:06:41.942Z,245
2017-08-13T10:07:51.586Z,250
2017-08-13T10:09:01.862Z,250
2017-08-13T10:10:12.136Z,250
2017-08-13T10:11:22.412Z,245
2017-08-13T10:12:32.060Z,240
2017-08-13T10:13:42.022Z,240
2017-08-13T10:14:51.667Z,240
2017-08-13T10:16:01.940Z,245
2017-08-13T10:17:12.212Z,245
2017-08-13T10:18:21.541Z,245
2017-08-13T10:19:31.201Z,245
2017-08-13T10:20:41.473Z,250
2017-08-13T10:21:51.613Z,255
2017-08-13T10:23:01.256Z,260
2017-08-13T10:24:11.539Z,265
2017-08-13T10:25:21.495Z,260
2017-08-13T10:26:31.454Z,255
2017-08-13T10:27:41.413Z,255
2017-08-13T10:28:51.692Z,260
2017-08-13T10:30:01.985Z,255
2017-08-13T10:31:11.943Z,255
2017-08-13T10:32:21.903Z,260
2017-08-13T10:33:31.862Z,260
2017-08-13T10:34:42.133Z,255
2017-08-13T10:35:51.776Z,255
2017-08-13T10:37:02.052Z,255
2017-08-13T10:38:12.010Z,260
2017-08-13T10:39:21.966Z,260
2017-08-13T10:40:32.239Z,260
2017-08-13T10:41:42.512Z,265
2017-08-13T10:42:52.468Z,265
2017-08-13T10:44:02.755Z,270
2017-08-13T10:45:12.713Z,280
2017-08-13T10:46:22.673Z,300
2017-08-13T10:47:32.632Z,305
2017-08-13T10:48:42.924Z,290
2017-08-13T10:49:53.199Z,235
2017-08-13T10:51:03.470Z,290
2017-08-13T10:52:13.434Z,295
2017-08-13T10:53:23.724Z,305
2017-08-13T10:54:33.997Z,330
2017-08-13T10:55:44.276Z,340
2017-08-13T10:56:54.554Z,360
2017-08-13T10:58:04.510Z,340
2017-08-13T10:59:14.476Z,365
2017-08-13T11:00:23.807Z,365
2017-08-13T11:01:34.079Z,390
2017-08-13T11:02:44.355Z,375
2017-08-13T11:03:54.320Z,365
2017-08-13T11:05:04.286Z,425
2017-08-13T11:06:14.570Z,395
2017-08-13T11:07:24.858Z,355
2017-08-13T11:08:34.827Z,375
2017-08-13T11:09:45.123Z,320
2017-08-13T11:10:55.082Z,290
2017-08-13T11:12:05.052Z,305
2017-08-13T11:13:15.016Z,280
2017-08-13T11:14:25.289Z,335
2017-08-13T11:15:35.558Z,375
2017-08-13T11:16:45.841Z,325
2017-08-13T11:17:56.119Z,340
2017-08-13T11:19:06.441Z,420
2017-08-13T11:20:16.725Z,345
2017-08-13T11:21:26.997Z,415
2017-08-13T11:22:37.272Z,400
2017-08-13T11:23:47.546Z,265
2017-08-13T11:24:57.836Z,265
2017-08-13T11:26:08.109Z,310
2017-08-13T11:27:18.071Z,330
2017-08-13T11:28:28.363Z,1210
2017-08-13T11:29:38.637Z,2590
2017-08-13T11:30:48.911Z,2625
2017-08-13T11:31:59.186Z,2675
2017-08-13T11:33:09.487Z,2760
2017-08-13T11:34:19.770Z,2750
2017-08-13T11:35:29.730Z,2870
2017-08-13T11:36:39.708Z,2975
2017-08-13T11:37:49.693Z,2755
2017-08-13T11:38:59.665Z,2775
2017-08-13T11:40:09.635Z,2930
2017-08-13T11:41:19.606Z,2915
2017-08-13T11:42:29.573Z,2800
2017-08-13T11:43:39.852Z,2885
2017-08-13T11:44:50.137Z,1585
2017-08-13T11:46:00.423Z,2035
2017-08-13T11:47:10.714Z,2610
2017-08-13T11:48:20.996Z,2745
2017-08-13T11:49:31.304Z,2710
2017-08-13T11:50:41.583Z,2545
2017-08-13T11:51:51.869Z,2880
2017-08-13T11:53:01.535Z,500
2017-08-13T11:54:11.821Z,545
2017-08-13T11:55:22.102Z,680
2017-08-13T11:56:32.487Z,2735
2017-08-13T11:57:42.775Z,2645
2017-08-13T11:58:53.061Z,2660
2017-08-13T12:00:03.347Z,2680
2017-08-13T12:01:13.632Z,2760
2017-08-13T12:02:23.920Z,2790
2017-08-13T12:03:34.204Z,2540
2017-08-13T12:04:44.191Z,2675
2017-08-13T12:05:54.166Z,2920
2017-08-13T12:07:04.143Z,3005
2017-08-13T12:08:14.435Z,3165
2017-08-13T12:09:24.722Z,3235
2017-08-13T12:10:34.378Z,2870
2017-08-13T12:11:44.675Z,3115
2017-08-13T12:12:54.674Z,3105
2017-08-13T12:14:04.649Z,3045
2017-08-13T12:15:14.623Z,2955
2017-08-13T12:16:24.616Z,2870
2017-08-13T12:17:34.927Z,2990
2017-08-13T12:18:45.215Z,3150
2017-08-13T12:19:55.508Z,2350
2017-08-13T12:21:05.802Z,765
2017-08-13T12:22:16.096Z,3330
2017-08-13T12:23:26.385Z,3115
2017-08-13T12:24:36.671Z,3280
2017-08-13T12:25:46.959Z,3105
2017-08-13T12:26:57.249Z,3155
2017-08-13T12:28:07.536Z,3020
2017-08-13T12:29:17.825Z,3045
2017-08-13T12:30:28.122Z,3160
2017-08-13T12:31:38.099Z,3195
2017-08-13T12:32:48.391Z,3240
2017-08-13T12:33:58.680Z,2915
2017-08-13T12:35:08.974Z,2830
2017-08-13T12:36:18.947Z,2895
2017-08-13T12:37:28.921Z,2780
2017-08-13T12:38:38.958Z,2645
2017-08-13T12:39:48.931Z,2760
2017-08-13T12:40:59.217Z,2670
2017-08-13T12:42:09.208Z,2610
2017-08-13T12:43:19.496Z,2650
2017-08-13T12:44:29.478Z,2520
2017-08-13T12:45:39.767Z,2490
2017-08-13T12:46:49.738Z,2475
2017-08-13T12:48:00.030Z,2250
2017-08-13T12:49:10.325Z,2235
2017-08-13T12:50:20.616Z,2190
2017-08-13T12:51:30.597Z,2015
2017-08-13T12:52:40.888Z,2010
2017-08-13T12:53:51.176Z,2130
2017-08-13T12:55:03.158Z,2275
2017-08-13T12:56:13.132Z,2575
2017-08-13T12:57:23.105Z,2930
2017-08-13T12:58:33.079Z,2925
2017-08-13T12:59:43.382Z,2750
2017-08-13T13:00:53.359Z,845
2017-08-13T13:02:03.646Z,2850
2017-08-13T13:03:13.621Z,2930
2017-08-13T13:04:23.937Z,3125
2017-08-13T13:05:33.911Z,3585
2017-08-13T13:06:44.201Z,3900
2017-08-13T13:07:54.179Z,3555
2017-08-13T13:09:04.153Z,3160
2017-08-13T13:10:14.127Z,3025
2017-08-13T13:11:24.098Z,2885
2017-08-13T13:12:34.074Z,615
2017-08-13T13:13:44.367Z,825
2017-08-13T13:14:54.341Z,885
2017-08-13T13:16:04.629Z,3485
2017-08-13T13:17:14.917Z,3790
2017-08-13T13:18:24.895Z,2110
2017-08-13T13:19:34.867Z,3600
2017-08-13T13:20:45.160Z,3585
2017-08-13T13:21:55.448Z,3515
2017-08-13T13:23:05.735Z,810
2017-08-13T13:24:16.228Z,605
2017-08-13T13:25:26.514Z,530
2017-08-13T13:26:36.492Z,455
2017-08-13T13:27:46.462Z,875
2017-08-13T13:28:56.747Z,3265
2017-08-13T13:30:06.404Z,3380
2017-08-13T13:31:16.697Z,3390
2017-08-13T13:32:26.987Z,3340
2017-08-13T13:33:36.981Z,3510
2017-08-13T13:34:46.964Z,3345
2017-08-13T13:35:57.262Z,3435
2017-08-13T13:37:07.546Z,600
2017-08-13T13:38:17.834Z,3265
2017-08-13T13:39:28.118Z,3225
2017-08-13T13:40:38.403Z,3155
2017-08-13T13:41:48.375Z,1485
2017-08-13T13:42:58.347Z,1405
2017-08-13T13:44:08.636Z,3355
2017-08-13T13:45:18.921Z,3340
2017-08-13T13:46:28.898Z,3335
2017-08-13T13:47:38.873Z,3240
2017-08-13T13:48:49.158Z,3275
2017-08-13T13:49:59.445Z,845
2017-08-13T13:51:09.737Z,785
2017-08-13T13:52:20.023Z,3545
2017-08-13T13:53:29.997Z,2185
2017-08-13T13:54:40.288Z,1940
2017-08-13T13:55:50.583Z,3250
2017-08-13T13:57:00.877Z,3250
2017-08-13T13:58:11.164Z,3275
2017-08-13T13:59:21.451Z,3290
2017-08-13T14:00:31.738Z,3070
2017-08-13T14:01:41.714Z,3350
2017-08-13T14:02:51.687Z,3285
2017-08-13T14:04:01.979Z,3245
2017-08-13T14:05:12.279Z,3310
2017-08-13T14:06:22.576Z,3130
2017-08-13T14:07:32.874Z,3230
2017-08-13T14:08:42.846Z,3505
2017-08-13T14:09:52.824Z,720
2017-08-13T14:11:03.117Z,2080
2017-08-13T14:12:13.420Z,3425
2017-08-13T14:13:23.710Z,1255
2017-08-13T14:14:33.999Z,1015
2017-08-13T14:15:43.974Z,1320
2017-08-13T14:16:53.963Z,3210
2017-08-13T14:18:03.934Z,3135
2017-08-13T14:19:14.224Z,3035
2017-08-13T14:20:24.513Z,3090
2017-08-13T14:21:34.810Z,3055
2017-08-13T14:22:44.795Z,3010
2017-08-13T14:23:55.085Z,3225
2017-08-13T14:25:05.128Z,3065
2017-08-13T14:26:15.421Z,2930
2017-08-13T14:27:25.426Z,2995
2017-08-13T14:28:35.712Z,2975
2017-08-13T14:29:45.997Z,2915
2017-08-13T14:30:56.285Z,2935
2017-08-13T14:32:06.573Z,2915
2017-08-13T14:33:16.868Z,2935
2017-08-13T14:34:27.164Z,2905
2017-08-13T14:35:37.465Z,3040
2017-08-13T14:36:47.128Z,3020
2017-08-13T14:37:57.113Z,3035
2017-08-13T14:39:07.088Z,3035
2017-08-13T14:40:16.441Z,3035
2017-08-13T14:41:26.730Z,2385
2017-08-13T14:42:37.017Z,2780
2017-08-13T14:43:46.994Z,3005
2017-08-13T14:44:56.968Z,2815
2017-08-13T14:46:07.255Z,2650
2017-08-13T14:47:17.549Z,2850
2017-08-13T14:48:27.840Z,2975
2017-08-13T14:49:38.127Z,2955
2017-08-13T14:50:48.100Z,2940
2017-08-13T14:51:57.764Z,2920
2017-08-13T14:53:08.058Z,2825
2017-08-13T14:54:18.347Z,2760
2017-08-13T14:55:28.639Z,2665
2017-08-13T14:56:38.614Z,2680
2017-08-13T14:57:48.912Z,2740
2017-08-13T14:58:58.890Z,2750
2017-08-13T15:00:09.177Z,2825
2017-08-13T15:01:19.468Z,2835
2017-08-13T15:02:28.819Z,2745
2017-08-13T15:03:38.800Z,2765
2017-08-13T15:04:48.777Z,2850
2017-08-13T15:05:58.432Z,2635
2017-08-13T15:07:08.092Z,2510
2017-08-13T15:08:18.404Z,2550
2017-08-13T15:09:28.383Z,2735
2017-08-13T15:10:38.676Z,2760
2017-08-13T15:11:48.966Z,2480
2017-08-13T15:12:58.947Z,2555
2017-08-13T15:14:08.921Z,2800
2017-08-13T15:15:19.206Z,2825
2017-08-13T15:16:29.513Z,2750
2017-08-13T15:17:39.488Z,2615
2017-08-13T15:18:49.145Z,2475
2017-08-13T15:19:59.433Z,2515
2017-08-13T15:21:09.756Z,2585
2017-08-13T15:22:20.041Z,2575
2017-08-13T15:23:30.026Z,2590
2017-08-13T15:24:40.001Z,2560
2017-08-13T15:25:50.291Z,2535
2017-08-13T15:27:00.583Z,2350
2017-08-13T15:28:10.871Z,2165
2017-08-13T15:29:21.161Z,1935
2017-08-13T15:30:31.138Z,1665
2017-08-13T15:31:41.426Z,1655
2017-08-13T15:32:51.400Z,1865
2017-08-13T15:34:01.688Z,1665
2017-08-13T15:35:11.983Z,1420
2017-08-13T15:36:21.954Z,1095
2017-08-13T15:37:32.262Z,500
2017-08-13T15:38:42.548Z,335
2017-08-13T15:39:52.522Z,360
2017-08-13T15:41:02.807Z,440
2017-08-13T15:42:12.460Z,410
2017-08-13T15:43:22.745Z,445
2017-08-13T15:44:32.403Z,350
2017-08-13T15:45:42.370Z,320
2017-08-13T15:46:52.658Z,290
2017-08-13T15:48:02.628Z,285
2017-08-13T15:49:12.592Z,265
2017-08-13T15:50:22.571Z,305
2017-08-13T15:51:32.854Z,410
2017-08-13T15:52:43.142Z,240
2017-08-13T15:53:53.431Z,230
2017-08-13T15:55:03.709Z,230
2017-08-13T15:56:13.360Z,235
2017-08-13T15:57:23.015Z,230
2017-08-13T15:58:33.300Z,225
2017-08-13T15:59:43.268Z,220
2017-08-13T16:00:53.567Z,220
2017-08-13T16:02:03.849Z,220
2017-08-13T16:03:14.129Z,215
2017-08-13T16:04:24.098Z,215
2017-08-13T16:05:34.068Z,215
2017-08-13T16:06:44.037Z,215
2017-08-13T16:07:54.318Z,215
2017-08-13T16:09:04.603Z,230
2017-08-13T16:10:14.567Z,235
2017-08-13T16:11:24.845Z,220
2017-08-13T16:12:34.813Z,210
2017-08-13T16:13:45.090Z,215
2017-08-13T16:14:55.369Z,210